Doucette, Texas
Current Conditions -  °F | °C
As of 10:55 AM on Friday 28 Nov 2014 (Local Time) from KJAS Reporting Station
Clear Clear  
Wind Chill: 57°   Ceiling: Unl
Heat Index: 57°   Visibility: 10mi
Dew Point: 44°   Wind: 5mph
Humidity: 61%   Direction: 160°SSE
Pressure: 30.36"   Gusts: NA
Location:  30.82°N, 94.43°W
Report Text: KJAS 281655Z AUTO 16004KT 10SM CLR 14/07 A3036 RMK AO2 T01410067
Loading
Personal Weather Stations






























Interactive Weather Map New forecast layout! Learn more

10-Day Weather Forecast

Advertisements
Track Severe Weather on mobile